LiveATC.Net - Listen to live air traffic control over the Internet! Contact for advertising information

ICAO: KPDK  IATA: PDK   Airport: Dekalb-Peachtree Airport
City: Atlanta   State/Province: Georgia
Country: United States   Continent: North America
KPDK METAR Weather: KPDK 281753Z 21006KT 10SM CLR 21/13 A3027 RMK AO2 SLP244 T02060128 10206 20083 58020
KPDK Flight Activity (FlightAware)
KPDK Airport Info   (AirNav) (iFlightPlanner)
KPDK VFR Sectional Chart   (iFlightPlanner) 
KPDK IFR Low Chart   (iFlightPlanner) 
KPDK Tower
Feed Status: UP   Listeners: 0
Listen right in your browser - requires Flash (in browser, requires Flash)
Click here to listen with your own player (launches your MP3 player)
KPDK Tower Audio Archives
Peachtree Tower120.900


Unauthorized use prohibited. See Terms of Service

Find LiveATC Audio Streams

Airport/ARTCC Code

(e.g., 124.400, 128.75)
Site-wide search

Browse LiveATC Feeds
LiveATC Coverage Map
Top 50 LiveATC Feeds
Bad Weather Areas

Offer a LiveATC Feed
Press Inquiries

LiveATC on iPhone
LiveATC on Android

Windows Phone
Windows 8/10

LiveATC Mobile
(Mobile browser)

ATC Audio Archives
Interesting Recordings

LiveATC Forums

Home Page
Make a Donation
LiveATC Bookstore

Terms of Use
Privacy Policy

ATC/Radar Sites
U.S. ARTCC Freqs
Canadian Air Freqs


FAA Airport Status
Nat'l Airspace Status
Arrival Demand Charts

Server Software By:

Please make a donation to help us keep growing!